sensor_id;sensor_type;location;lat;lon;timestamp;P1;durP1;ratioP1;P2;durP2;ratioP2
10432;SDS011;5263;48.680;9.004;2023-04-05T00:01:28;5.43;;;3.90;;
10432;SDS011;5263;48.680;9.004;2023-04-05T00:03:55;5.70;;;3.17;;
10432;SDS011;5263;48.680;9.004;2023-04-05T00:06:30;4.30;;;3.67;;
10432;SDS011;5263;48.680;9.004;2023-04-05T00:08:56;4.93;;;2.63;;
10432;SDS011;5263;48.680;9.004;2023-04-05T00:11:27;3.50;;;2.97;;
10432;SDS011;5263;48.680;9.004;2023-04-05T00:13:54;6.50;;;3.53;;
10432;SDS011;5263;48.680;9.004;2023-04-05T00:16:20;4.77;;;3.50;;
10432;SDS011;5263;48.680;9.004;2023-04-05T00:18:46;3.70;;;3.30;;
10432;SDS011;5263;48.680;9.004;2023-04-05T00:21:18;4.27;;;3.60;;
10432;SDS011;5263;48.680;9.004;2023-04-05T00:23:51;6.73;;;3.27;;
10432;SDS011;5263;48.680;9.004;2023-04-05T00:26:19;3.90;;;3.40;;
10432;SDS011;5263;48.680;9.004;2023-04-05T00:28:48;5.57;;;3.70;;
10432;SDS011;5263;48.680;9.004;2023-04-05T00:31:15;4.87;;;2.80;;
10432;SDS011;5263;48.680;9.004;2023-04-05T00:33:41;5.43;;;3.13;;
10432;SDS011;5263;48.680;9.004;2023-04-05T00:36:07;3.80;;;3.37;;
10432;SDS011;5263;48.680;9.004;2023-04-05T00:38:35;4.50;;;3.37;;
10432;SDS011;5263;48.680;9.004;2023-04-05T00:41:01;3.50;;;3.17;;
10432;SDS011;5263;48.680;9.004;2023-04-05T00:43:27;5.43;;;3.83;;
10432;SDS011;5263;48.680;9.004;2023-04-05T00:45:52;3.83;;;2.87;;
10432;SDS011;5263;48.680;9.004;2023-04-05T00:48:19;4.47;;;2.97;;
10432;SDS011;5263;48.680;9.004;2023-04-05T00:50:45;5.73;;;3.30;;
10432;SDS011;5263;48.680;9.004;2023-04-05T00:53:14;3.10;;;2.90;;
10432;SDS011;5263;48.680;9.004;2023-04-05T00:55:40;4.67;;;3.07;;
10432;SDS011;5263;48.680;9.004;2023-04-05T00:58:06;7.87;;;3.60;;
10432;SDS011;5263;48.680;9.004;2023-04-05T01:00:34;4.27;;;3.83;;
10432;SDS011;5263;48.680;9.004;2023-04-05T01:03:02;3.77;;;3.43;;
10432;SDS011;5263;48.680;9.004;2023-04-05T01:05:42;3.93;;;3.57;;
10432;SDS011;5263;48.680;9.004;2023-04-05T01:11:16;4.90;;;3.27;;
10432;SDS011;5263;48.680;9.004;2023-04-05T01:13:46;4.53;;;3.47;;
10432;SDS011;5263;48.680;9.004;2023-04-05T01:16:11;4.07;;;3.30;;
10432;SDS011;5263;48.680;9.004;2023-04-05T01:18:39;4.60;;;3.23;;
10432;SDS011;5263;48.680;9.004;2023-04-05T01:21:16;5.73;;;3.60;;
10432;SDS011;5263;48.680;9.004;2023-04-05T01:27:13;4.40;;;3.37;;
10432;SDS011;5263;48.680;9.004;2023-04-05T01:29:44;8.93;;;3.57;;
10432;SDS011;5263;48.680;9.004;2023-04-05T01:32:38;8.13;;;3.67;;
10432;SDS011;5263;48.680;9.004;2023-04-05T01:35:24;4.80;;;3.93;;
10432;SDS011;5263;48.680;9.004;2023-04-05T01:38:04;4.40;;;3.97;;
10432;SDS011;5263;48.680;9.004;2023-04-05T01:40:34;8.77;;;4.23;;
10432;SDS011;5263;48.680;9.004;2023-04-05T01:43:02;3.27;;;2.97;;
10432;SDS011;5263;48.680;9.004;2023-04-05T01:45:36;4.30;;;3.33;;
10432;SDS011;5263;48.680;9.004;2023-04-05T01:48:01;4.33;;;3.03;;
10432;SDS011;5263;48.680;9.004;2023-04-05T01:50:27;5.30;;;3.87;;
10432;SDS011;5263;48.680;9.004;2023-04-05T01:52:53;6.73;;;4.07;;
10432;SDS011;5263;48.680;9.004;2023-04-05T01:55:18;5.40;;;4.03;;
10432;SDS011;5263;48.680;9.004;2023-04-05T01:57:44;4.33;;;3.43;;
10432;SDS011;5263;48.680;9.004;2023-04-05T02:00:10;6.50;;;3.77;;
10432;SDS011;5263;48.680;9.004;2023-04-05T02:02:36;4.27;;;3.77;;
10432;SDS011;5263;48.680;9.004;2023-04-05T02:05:01;6.80;;;3.97;;
10432;SDS011;5263;48.680;9.004;2023-04-05T02:07:27;3.87;;;3.43;;
10432;SDS011;5263;48.680;9.004;2023-04-05T02:09:52;8.23;;;3.53;;
10432;SDS011;5263;48.680;9.004;2023-04-05T02:12:18;6.07;;;4.10;;
10432;SDS011;5263;48.680;9.004;2023-04-05T02:14:44;5.13;;;3.70;;
10432;SDS011;5263;48.680;9.004;2023-04-05T02:17:09;7.67;;;3.00;;
10432;SDS011;5263;48.680;9.004;2023-04-05T02:19:35;5.60;;;3.60;;
10432;SDS011;5263;48.680;9.004;2023-04-05T02:22:10;3.03;;;2.83;;
10432;SDS011;5263;48.680;9.004;2023-04-05T02:24:36;3.77;;;2.77;;
10432;SDS011;5263;48.680;9.004;2023-04-05T02:27:02;4.30;;;3.23;;
10432;SDS011;5263;48.680;9.004;2023-04-05T02:29:27;4.77;;;3.77;;
10432;SDS011;5263;48.680;9.004;2023-04-05T02:31:53;5.37;;;4.10;;
10432;SDS011;5263;48.680;9.004;2023-04-05T02:34:19;4.83;;;4.17;;
10432;SDS011;5263;48.680;9.004;2023-04-05T02:36:47;6.07;;;3.67;;
10432;SDS011;5263;48.680;9.004;2023-04-05T02:39:17;5.27;;;3.80;;
10432;SDS011;5263;48.680;9.004;2023-04-05T02:41:42;6.93;;;3.87;;
10432;SDS011;5263;48.680;9.004;2023-04-05T02:44:08;6.47;;;3.93;;
10432;SDS011;5263;48.680;9.004;2023-04-05T02:46:33;6.87;;;3.77;;
10432;SDS011;5263;48.680;9.004;2023-04-05T02:48:59;7.17;;;3.60;;
10432;SDS011;5263;48.680;9.004;2023-04-05T02:51:25;4.60;;;3.93;;
10432;SDS011;5263;48.680;9.004;2023-04-05T02:53:51;8.67;;;3.80;;
10432;SDS011;5263;48.680;9.004;2023-04-05T02:56:17;5.67;;;3.30;;
10432;SDS011;5263;48.680;9.004;2023-04-05T02:58:43;3.63;;;3.33;;
10432;SDS011;5263;48.680;9.004;2023-04-05T03:01:09;4.97;;;3.77;;
10432;SDS011;5263;48.680;9.004;2023-04-05T03:03:35;4.27;;;3.87;;
10432;SDS011;5263;48.680;9.004;2023-04-05T03:06:02;4.23;;;3.50;;
10432;SDS011;5263;48.680;9.004;2023-04-05T03:08:36;7.30;;;4.27;;
10432;SDS011;5263;48.680;9.004;2023-04-05T03:11:04;6.67;;;3.90;;
10432;SDS011;5263;48.680;9.004;2023-04-05T03:13:30;7.20;;;3.97;;
10432;SDS011;5263;48.680;9.004;2023-04-05T03:15:56;7.27;;;4.03;;
10432;SDS011;5263;48.680;9.004;2023-04-05T03:18:21;7.00;;;3.90;;
10432;SDS011;5263;48.680;9.004;2023-04-05T03:20:50;4.10;;;3.43;;
10432;SDS011;5263;48.680;9.004;2023-04-05T03:23:25;5.10;;;3.77;;
10432;SDS011;5263;48.680;9.004;2023-04-05T03:28:22;6.27;;;4.60;;
10432;SDS011;5263;48.680;9.004;2023-04-05T03:30:48;3.90;;;3.57;;
10432;SDS011;5263;48.680;9.004;2023-04-05T03:33:14;5.13;;;4.63;;
10432;SDS011;5263;48.680;9.004;2023-04-05T03:35:40;6.13;;;4.30;;
10432;SDS011;5263;48.680;9.004;2023-04-05T03:38:05;5.83;;;3.90;;
10432;SDS011;5263;48.680;9.004;2023-04-05T03:40:31;4.13;;;3.43;;
10432;SDS011;5263;48.680;9.004;2023-04-05T03:42:57;4.90;;;3.60;;
10432;SDS011;5263;48.680;9.004;2023-04-05T03:45:22;4.17;;;3.67;;
10432;SDS011;5263;48.680;9.004;2023-04-05T03:47:49;4.33;;;3.80;;
10432;SDS011;5263;48.680;9.004;2023-04-05T03:50:14;4.93;;;4.53;;
10432;SDS011;5263;48.680;9.004;2023-04-05T03:52:40;7.73;;;4.37;;
10432;SDS011;5263;48.680;9.004;2023-04-05T03:55:06;7.40;;;4.47;;
10432;SDS011;5263;48.680;9.004;2023-04-05T03:57:32;8.33;;;3.93;;
10432;SDS011;5263;48.680;9.004;2023-04-05T03:59:58;7.90;;;4.83;;
10432;SDS011;5263;48.680;9.004;2023-04-05T04:02:23;6.30;;;4.23;;
10432;SDS011;5263;48.680;9.004;2023-04-05T04:04:49;5.10;;;4.40;;
10432;SDS011;5263;48.680;9.004;2023-04-05T04:07:15;5.00;;;4.43;;
10432;SDS011;5263;48.680;9.004;2023-04-05T04:09:41;8.00;;;4.50;;
10432;SDS011;5263;48.680;9.004;2023-04-05T04:12:06;6.37;;;3.80;;
10432;SDS011;5263;48.680;9.004;2023-04-05T04:14:33;4.90;;;4.50;;
10432;SDS011;5263;48.680;9.004;2023-04-05T04:16:59;8.93;;;5.00;;
10432;SDS011;5263;48.680;9.004;2023-04-05T04:19:24;7.30;;;4.03;;
10432;SDS011;5263;48.680;9.004;2023-04-05T04:21:50;5.40;;;4.60;;
10432;SDS011;5263;48.680;9.004;2023-04-05T04:24:16;4.97;;;4.13;;
10432;SDS011;5263;48.680;9.004;2023-04-05T04:26:46;5.83;;;4.40;;
10432;SDS011;5263;48.680;9.004;2023-04-05T04:29:12;5.40;;;4.33;;
10432;SDS011;5263;48.680;9.004;2023-04-05T04:31:40;4.60;;;4.17;;
10432;SDS011;5263;48.680;9.004;2023-04-05T04:34:09;7.47;;;4.73;;
10432;SDS011;5263;48.680;9.004;2023-04-05T04:36:38;6.67;;;4.93;;
10432;SDS011;5263;48.680;9.004;2023-04-05T04:39:06;5.23;;;3.73;;
10432;SDS011;5263;48.680;9.004;2023-04-05T04:41:32;8.20;;;5.60;;
10432;SDS011;5263;48.680;9.004;2023-04-05T04:44:00;11.17;;;5.63;;
10432;SDS011;5263;48.680;9.004;2023-04-05T04:46:29;6.50;;;4.53;;
10432;SDS011;5263;48.680;9.004;2023-04-05T04:49:07;5.53;;;4.40;;
10432;SDS011;5263;48.680;9.004;2023-04-05T04:51:36;6.13;;;4.67;;
10432;SDS011;5263;48.680;9.004;2023-04-05T04:54:02;8.60;;;5.60;;
10432;SDS011;5263;48.680;9.004;2023-04-05T04:56:28;7.67;;;5.13;;
10432;SDS011;5263;48.680;9.004;2023-04-05T04:58:54;9.27;;;4.67;;
10432;SDS011;5263;48.680;9.004;2023-04-05T05:01:20;10.87;;;5.30;;
10432;SDS011;5263;48.680;9.004;2023-04-05T05:03:48;10.70;;;5.37;;
10432;SDS011;5263;48.680;9.004;2023-04-05T05:06:18;5.80;;;4.50;;
10432;SDS011;5263;48.680;9.004;2023-04-05T05:08:45;8.97;;;5.13;;
10432;SDS011;5263;48.680;9.004;2023-04-05T05:11:11;5.97;;;4.57;;
10432;SDS011;5263;48.680;9.004;2023-04-05T05:13:37;5.70;;;5.10;;
10432;SDS011;5263;48.680;9.004;2023-04-05T05:16:03;7.23;;;5.53;;
10432;SDS011;5263;48.680;9.004;2023-04-05T05:18:29;7.67;;;5.40;;
10432;SDS011;5263;48.680;9.004;2023-04-05T05:20:55;9.23;;;6.30;;
10432;SDS011;5263;48.680;9.004;2023-04-05T05:23:21;7.77;;;5.23;;
10432;SDS011;5263;48.680;9.004;2023-04-05T05:25:46;7.20;;;5.53;;
10432;SDS011;5263;48.680;9.004;2023-04-05T05:28:12;7.10;;;5.73;;
10432;SDS011;5263;48.680;9.004;2023-04-05T05:30:38;18.90;;;5.53;;
10432;SDS011;5263;48.680;9.004;2023-04-05T05:33:03;11.73;;;5.20;;
10432;SDS011;5263;48.680;9.004;2023-04-05T05:35:29;11.47;;;5.73;;
10432;SDS011;5263;48.680;9.004;2023-04-05T05:37:54;8.07;;;5.60;;
10432;SDS011;5263;48.680;9.004;2023-04-05T05:40:20;7.87;;;5.43;;
10432;SDS011;5263;48.680;9.004;2023-04-05T05:42:45;7.77;;;5.00;;
10432;SDS011;5263;48.680;9.004;2023-04-05T05:45:11;7.53;;;5.53;;
10432;SDS011;5263;48.680;9.004;2023-04-05T05:47:37;9.13;;;5.47;;
10432;SDS011;5263;48.680;9.004;2023-04-05T05:50:03;6.37;;;5.33;;
10432;SDS011;5263;48.680;9.004;2023-04-05T05:52:29;7.83;;;5.60;;
10432;SDS011;5263;48.680;9.004;2023-04-05T05:54:55;9.43;;;5.10;;
10432;SDS011;5263;48.680;9.004;2023-04-05T05:57:20;8.47;;;5.97;;
10432;SDS011;5263;48.680;9.004;2023-04-05T05:59:46;10.77;;;6.13;;
10432;SDS011;5263;48.680;9.004;2023-04-05T06:02:11;12.07;;;6.23;;
10432;SDS011;5263;48.680;9.004;2023-04-05T06:04:37;7.37;;;5.33;;
10432;SDS011;5263;48.680;9.004;2023-04-05T06:07:03;9.17;;;7.03;;
10432;SDS011;5263;48.680;9.004;2023-04-05T06:09:28;6.83;;;5.43;;
10432;SDS011;5263;48.680;9.004;2023-04-05T06:11:54;7.63;;;5.30;;
10432;SDS011;5263;48.680;9.004;2023-04-05T06:14:20;10.93;;;5.13;;
10432;SDS011;5263;48.680;9.004;2023-04-05T06:16:46;7.57;;;5.23;;
10432;SDS011;5263;48.680;9.004;2023-04-05T06:19:12;10.17;;;6.17;;
10432;SDS011;5263;48.680;9.004;2023-04-05T06:21:38;6.53;;;5.50;;
10432;SDS011;5263;48.680;9.004;2023-04-05T06:24:04;8.53;;;5.27;;
10432;SDS011;5263;48.680;9.004;2023-04-05T06:26:30;9.57;;;5.70;;
10432;SDS011;5263;48.680;9.004;2023-04-05T06:28:56;8.00;;;6.10;;
10432;SDS011;5263;48.680;9.004;2023-04-05T06:31:25;14.27;;;5.27;;
10432;SDS011;5263;48.680;9.004;2023-04-05T06:33:54;8.70;;;6.00;;
10432;SDS011;5263;48.680;9.004;2023-04-05T06:36:20;8.83;;;6.03;;
10432;SDS011;5263;48.680;9.004;2023-04-05T06:38:45;7.80;;;6.10;;
10432;SDS011;5263;48.680;9.004;2023-04-05T06:41:11;9.27;;;5.87;;
10432;SDS011;5263;48.680;9.004;2023-04-05T06:43:37;9.73;;;5.50;;
10432;SDS011;5263;48.680;9.004;2023-04-05T06:46:02;12.67;;;6.00;;
10432;SDS011;5263;48.680;9.004;2023-04-05T06:48:32;10.03;;;6.40;;
10432;SDS011;5263;48.680;9.004;2023-04-05T06:50:59;12.73;;;6.77;;
10432;SDS011;5263;48.680;9.004;2023-04-05T06:53:26;11.90;;;5.43;;
10432;SDS011;5263;48.680;9.004;2023-04-05T06:55:53;7.87;;;5.60;;
10432;SDS011;5263;48.680;9.004;2023-04-05T06:58:19;7.77;;;5.77;;
10432;SDS011;5263;48.680;9.004;2023-04-05T07:00:45;9.00;;;6.10;;
10432;SDS011;5263;48.680;9.004;2023-04-05T07:03:11;7.70;;;5.37;;
10432;SDS011;5263;48.680;9.004;2023-04-05T07:05:36;6.07;;;5.50;;
10432;SDS011;5263;48.680;9.004;2023-04-05T07:08:02;8.40;;;5.40;;
10432;SDS011;5263;48.680;9.004;2023-04-05T07:10:28;11.00;;;6.03;;
10432;SDS011;5263;48.680;9.004;2023-04-05T07:12:53;6.70;;;6.00;;
10432;SDS011;5263;48.680;9.004;2023-04-05T07:15:19;8.70;;;5.70;;
10432;SDS011;5263;48.680;9.004;2023-04-05T07:17:45;7.63;;;5.37;;
10432;SDS011;5263;48.680;9.004;2023-04-05T07:20:10;8.63;;;6.47;;
10432;SDS011;5263;48.680;9.004;2023-04-05T07:22:36;9.83;;;4.97;;
10432;SDS011;5263;48.680;9.004;2023-04-05T07:25:02;7.83;;;5.53;;
10432;SDS011;5263;48.680;9.004;2023-04-05T07:27:28;8.53;;;5.67;;
10432;SDS011;5263;48.680;9.004;2023-04-05T07:29:54;32.40;;;16.73;;
10432;SDS011;5263;48.680;9.004;2023-04-05T07:32:21;6.13;;;4.17;;
10432;SDS011;5263;48.680;9.004;2023-04-05T07:34:46;5.80;;;4.13;;
10432;SDS011;5263;48.680;9.004;2023-04-05T07:37:12;5.40;;;4.33;;
10432;SDS011;5263;48.680;9.004;2023-04-05T07:39:38;6.13;;;4.50;;
10432;SDS011;5263;48.680;9.004;2023-04-05T07:42:03;4.93;;;4.07;;
10432;SDS011;5263;48.680;9.004;2023-04-05T07:44:29;8.07;;;4.57;;
10432;SDS011;5263;48.680;9.004;2023-04-05T07:46:55;5.83;;;3.80;;
10432;SDS011;5263;48.680;9.004;2023-04-05T07:49:24;5.80;;;4.60;;
10432;SDS011;5263;48.680;9.004;2023-04-05T07:51:55;6.03;;;4.20;;
10432;SDS011;5263;48.680;9.004;2023-04-05T07:54:21;6.10;;;3.63;;
10432;SDS011;5263;48.680;9.004;2023-04-05T07:56:47;3.10;;;2.80;;
10432;SDS011;5263;48.680;9.004;2023-04-05T07:59:14;5.73;;;3.67;;
10432;SDS011;5263;48.680;9.004;2023-04-05T08:01:39;5.80;;;2.90;;
10432;SDS011;5263;48.680;9.004;2023-04-05T08:04:05;5.60;;;2.80;;
10432;SDS011;5263;48.680;9.004;2023-04-05T08:06:31;4.00;;;2.73;;
10432;SDS011;5263;48.680;9.004;2023-04-05T08:08:56;3.33;;;2.67;;
10432;SDS011;5263;48.680;9.004;2023-04-05T08:11:22;3.03;;;2.50;;
10432;SDS011;5263;48.680;9.004;2023-04-05T08:13:48;2.97;;;2.67;;
10432;SDS011;5263;48.680;9.004;2023-04-05T08:16:13;3.57;;;2.50;;
10432;SDS011;5263;48.680;9.004;2023-04-05T08:18:39;2.60;;;2.10;;
10432;SDS011;5263;48.680;9.004;2023-04-05T08:21:05;2.80;;;2.60;;
10432;SDS011;5263;48.680;9.004;2023-04-05T08:23:30;4.93;;;3.00;;
10432;SDS011;5263;48.680;9.004;2023-04-05T08:25:56;3.47;;;2.70;;
10432;SDS011;5263;48.680;9.004;2023-04-05T08:28:22;4.37;;;2.43;;
10432;SDS011;5263;48.680;9.004;2023-04-05T08:30:51;5.57;;;2.73;;
10432;SDS011;5263;48.680;9.004;2023-04-05T08:33:21;3.03;;;2.50;;
10432;SDS011;5263;48.680;9.004;2023-04-05T08:35:47;3.30;;;3.00;;
10432;SDS011;5263;48.680;9.004;2023-04-05T08:38:13;3.10;;;2.53;;
10432;SDS011;5263;48.680;9.004;2023-04-05T08:40:43;3.07;;;2.70;;
10432;SDS011;5263;48.680;9.004;2023-04-05T08:45:57;5.67;;;2.60;;
10432;SDS011;5263;48.680;9.004;2023-04-05T08:48:24;2.30;;;2.10;;
10432;SDS011;5263;48.680;9.004;2023-04-05T08:50:53;2.90;;;2.03;;
10432;SDS011;5263;48.680;9.004;2023-04-05T08:53:19;2.43;;;1.73;;
10432;SDS011;5263;48.680;9.004;2023-04-05T08:55:49;2.90;;;2.00;;
10432;SDS011;5263;48.680;9.004;2023-04-05T08:58:17;2.07;;;1.57;;
10432;SDS011;5263;48.680;9.004;2023-04-05T09:00:46;4.27;;;2.70;;
10432;SDS011;5263;48.680;9.004;2023-04-05T09:03:14;4.47;;;2.30;;
10432;SDS011;5263;48.680;9.004;2023-04-05T09:05:43;2.80;;;2.33;;
10432;SDS011;5263;48.680;9.004;2023-04-05T09:08:10;3.67;;;2.50;;
10432;SDS011;5263;48.680;9.004;2023-04-05T09:10:37;4.87;;;2.33;;
10432;SDS011;5263;48.680;9.004;2023-04-05T09:13:03;2.60;;;2.40;;
10432;SDS011;5263;48.680;9.004;2023-04-05T09:15:29;3.47;;;2.83;;
10432;SDS011;5263;48.680;9.004;2023-04-05T09:17:55;4.07;;;3.03;;
10432;SDS011;5263;48.680;9.004;2023-04-05T09:20:21;4.80;;;2.87;;
10432;SDS011;5263;48.680;9.004;2023-04-05T09:22:47;7.13;;;2.20;;
10432;SDS011;5263;48.680;9.004;2023-04-05T09:28:00;4.47;;;2.40;;
10432;SDS011;5263;48.680;9.004;2023-04-05T09:30:29;3.23;;;2.30;;
10432;SDS011;5263;48.680;9.004;2023-04-05T09:32:55;5.20;;;2.07;;
10432;SDS011;5263;48.680;9.004;2023-04-05T09:35:21;5.73;;;2.00;;
10432;SDS011;5263;48.680;9.004;2023-04-05T09:38:02;2.37;;;2.27;;
10432;SDS011;5263;48.680;9.004;2023-04-05T09:40:45;3.27;;;2.27;;
10432;SDS011;5263;48.680;9.004;2023-04-05T09:43:13;3.33;;;2.03;;
10432;SDS011;5263;48.680;9.004;2023-04-05T09:45:59;2.87;;;2.20;;
10432;SDS011;5263;48.680;9.004;2023-04-05T09:51:15;3.33;;;2.23;;
10432;SDS011;5263;48.680;9.004;2023-04-05T09:56:31;2.33;;;1.97;;
10432;SDS011;5263;48.680;9.004;2023-04-05T09:59:09;6.47;;;2.50;;
10432;SDS011;5263;48.680;9.004;2023-04-05T10:01:36;3.37;;;2.73;;
10432;SDS011;5263;48.680;9.004;2023-04-05T10:04:03;2.27;;;2.00;;
10432;SDS011;5263;48.680;9.004;2023-04-05T10:06:38;3.40;;;1.80;;
10432;SDS011;5263;48.680;9.004;2023-04-05T10:09:06;3.87;;;2.50;;
10432;SDS011;5263;48.680;9.004;2023-04-05T10:11:33;2.33;;;1.63;;
10432;SDS011;5263;48.680;9.004;2023-04-05T10:14:01;2.33;;;1.77;;
10432;SDS011;5263;48.680;9.004;2023-04-05T10:16:32;3.97;;;2.00;;
10432;SDS011;5263;48.680;9.004;2023-04-05T10:19:14;3.07;;;2.10;;
10432;SDS011;5263;48.680;9.004;2023-04-05T10:21:47;10.43;;;1.97;;
10432;SDS011;5263;48.680;9.004;2023-04-05T10:24:27;3.23;;;2.53;;
10432;SDS011;5263;48.680;9.004;2023-04-05T10:27:04;4.67;;;2.30;;
10432;SDS011;5263;48.680;9.004;2023-04-05T10:29:49;2.90;;;1.90;;
10432;SDS011;5263;48.680;9.004;2023-04-05T10:32:28;2.97;;;1.83;;
10432;SDS011;5263;48.680;9.004;2023-04-05T10:35:00;4.00;;;1.70;;
10432;SDS011;5263;48.680;9.004;2023-04-05T10:40:18;2.50;;;2.30;;
10432;SDS011;5263;48.680;9.004;2023-04-05T10:42:46;2.57;;;1.73;;
10432;SDS011;5263;48.680;9.004;2023-04-05T10:45:13;1.93;;;1.77;;
10432;SDS011;5263;48.680;9.004;2023-04-05T10:47:47;5.10;;;1.77;;
10432;SDS011;5263;48.680;9.004;2023-04-05T10:50:22;2.80;;;1.80;;
10432;SDS011;5263;48.680;9.004;2023-04-05T10:52:49;2.20;;;1.77;;
10432;SDS011;5263;48.680;9.004;2023-04-05T10:55:16;1.90;;;1.57;;
10432;SDS011;5263;48.680;9.004;2023-04-05T10:57:45;2.03;;;1.83;;
10432;SDS011;5263;48.680;9.004;2023-04-05T11:00:12;2.00;;;1.90;;
10432;SDS011;5263;48.680;9.004;2023-04-05T11:02:41;1.90;;;1.60;;
10432;SDS011;5263;48.680;9.004;2023-04-05T11:05:27;2.70;;;1.80;;
10432;SDS011;5263;48.680;9.004;2023-04-05T11:07:53;5.20;;;1.97;;
10432;SDS011;5263;48.680;9.004;2023-04-05T11:10:26;4.30;;;2.00;;
10432;SDS011;5263;48.680;9.004;2023-04-05T11:15:27;2.00;;;1.80;;
10432;SDS011;5263;48.680;9.004;2023-04-05T11:18:09;3.37;;;2.10;;
10432;SDS011;5263;48.680;9.004;2023-04-05T11:20:42;2.57;;;1.90;;
10432;SDS011;5263;48.680;9.004;2023-04-05T11:23:13;9.23;;;1.97;;
10432;SDS011;5263;48.680;9.004;2023-04-05T11:25:44;2.00;;;1.87;;
10432;SDS011;5263;48.680;9.004;2023-04-05T11:28:27;1.80;;;1.70;;
10432;SDS011;5263;48.680;9.004;2023-04-05T11:30:55;4.47;;;1.90;;
10432;SDS011;5263;48.680;9.004;2023-04-05T11:33:35;1.90;;;1.80;;
10432;SDS011;5263;48.680;9.004;2023-04-05T11:36:10;5.67;;;4.13;;
10432;SDS011;5263;48.680;9.004;2023-04-05T11:38:37;3.50;;;3.10;;
10432;SDS011;5263;48.680;9.004;2023-04-05T11:41:15;5.23;;;4.63;;
10432;SDS011;5263;48.680;9.004;2023-04-05T11:43:44;3.47;;;2.70;;
10432;SDS011;5263;48.680;9.004;2023-04-05T11:46:16;5.17;;;4.63;;
10432;SDS011;5263;48.680;9.004;2023-04-05T11:48:47;2.80;;;1.93;;
10432;SDS011;5263;48.680;9.004;2023-04-05T11:51:14;3.00;;;2.13;;
10432;SDS011;5263;48.680;9.004;2023-04-05T11:53:45;3.67;;;2.13;;
10432;SDS011;5263;48.680;9.004;2023-04-05T11:56:11;4.00;;;2.87;;
10432;SDS011;5263;48.680;9.004;2023-04-05T11:58:40;1.87;;;1.77;;
10432;SDS011;5263;48.680;9.004;2023-04-05T12:01:06;2.30;;;2.10;;
10432;SDS011;5263;48.680;9.004;2023-04-05T12:03:33;5.17;;;2.93;;
10432;SDS011;5263;48.680;9.004;2023-04-05T12:06:03;2.23;;;2.03;;
10432;SDS011;5263;48.680;9.004;2023-04-05T12:08:37;1.67;;;1.57;;
10432;SDS011;5263;48.680;9.004;2023-04-05T12:11:08;4.80;;;2.40;;
10432;SDS011;5263;48.680;9.004;2023-04-05T12:13:34;2.47;;;2.20;;
10432;SDS011;5263;48.680;9.004;2023-04-05T12:16:01;2.20;;;2.10;;
10432;SDS011;5263;48.680;9.004;2023-04-05T12:18:34;2.40;;;2.20;;
10432;SDS011;5263;48.680;9.004;2023-04-05T12:21:02;2.80;;;2.40;;
10432;SDS011;5263;48.680;9.004;2023-04-05T12:23:29;2.90;;;2.50;;
10432;SDS011;5263;48.680;9.004;2023-04-05T12:25:55;3.10;;;2.80;;
10432;SDS011;5263;48.680;9.004;2023-04-05T12:28:21;3.17;;;2.53;;
10432;SDS011;5263;48.680;9.004;2023-04-05T12:33:29;2.97;;;2.73;;
10432;SDS011;5263;48.680;9.004;2023-04-05T12:36:03;2.20;;;1.90;;
10432;SDS011;5263;48.680;9.004;2023-04-05T12:38:30;2.40;;;2.20;;
10432;SDS011;5263;48.680;9.004;2023-04-05T12:40:59;2.30;;;2.10;;
10432;SDS011;5263;48.680;9.004;2023-04-05T12:43:36;5.63;;;2.67;;
10432;SDS011;5263;48.680;9.004;2023-04-05T12:46:09;4.00;;;2.93;;
10432;SDS011;5263;48.680;9.004;2023-04-05T12:48:48;3.17;;;2.27;;
10432;SDS011;5263;48.680;9.004;2023-04-05T12:51:15;2.27;;;2.17;;
10432;SDS011;5263;48.680;9.004;2023-04-05T12:53:45;3.73;;;2.37;;
10432;SDS011;5263;48.680;9.004;2023-04-05T12:56:14;2.87;;;2.67;;
10432;SDS011;5263;48.680;9.004;2023-04-05T12:58:40;3.43;;;2.00;;
10432;SDS011;5263;48.680;9.004;2023-04-05T13:01:06;3.90;;;2.17;;
10432;SDS011;5263;48.680;9.004;2023-04-05T13:03:32;2.07;;;1.97;;
10432;SDS011;5263;48.680;9.004;2023-04-05T13:05:58;2.83;;;2.63;;
10432;SDS011;5263;48.680;9.004;2023-04-05T13:08:23;4.93;;;3.03;;
10432;SDS011;5263;48.680;9.004;2023-04-05T13:10:51;2.67;;;2.47;;
10432;SDS011;5263;48.680;9.004;2023-04-05T13:13:16;2.73;;;2.37;;
10432;SDS011;5263;48.680;9.004;2023-04-05T13:15:42;3.00;;;2.67;;
10432;SDS011;5263;48.680;9.004;2023-04-05T13:18:08;5.20;;;2.37;;
10432;SDS011;5263;48.680;9.004;2023-04-05T13:20:34;2.00;;;1.90;;
10432;SDS011;5263;48.680;9.004;2023-04-05T13:23:00;2.87;;;2.63;;
10432;SDS011;5263;48.680;9.004;2023-04-05T13:25:26;2.93;;;2.60;;
10432;SDS011;5263;48.680;9.004;2023-04-05T13:27:52;3.80;;;2.73;;
10432;SDS011;5263;48.680;9.004;2023-04-05T13:30:18;4.97;;;2.67;;
10432;SDS011;5263;48.680;9.004;2023-04-05T13:32:44;2.80;;;2.50;;
10432;SDS011;5263;48.680;9.004;2023-04-05T13:35:09;4.57;;;2.50;;
10432;SDS011;5263;48.680;9.004;2023-04-05T13:37:35;2.30;;;2.17;;
10432;SDS011;5263;48.680;9.004;2023-04-05T13:40:01;2.53;;;2.30;;
10432;SDS011;5263;48.680;9.004;2023-04-05T13:42:27;2.10;;;2.00;;
10432;SDS011;5263;48.680;9.004;2023-04-05T13:44:53;3.60;;;3.00;;
10432;SDS011;5263;48.680;9.004;2023-04-05T13:47:18;3.33;;;2.60;;
10432;SDS011;5263;48.680;9.004;2023-04-05T13:49:44;2.20;;;2.00;;
10432;SDS011;5263;48.680;9.004;2023-04-05T13:52:10;3.00;;;2.77;;
10432;SDS011;5263;48.680;9.004;2023-04-05T13:54:36;2.93;;;2.40;;
10432;SDS011;5263;48.680;9.004;2023-04-05T13:57:02;2.73;;;2.43;;
10432;SDS011;5263;48.680;9.004;2023-04-05T13:59:27;2.70;;;2.50;;
10432;SDS011;5263;48.680;9.004;2023-04-05T14:01:53;3.57;;;2.93;;
10432;SDS011;5263;48.680;9.004;2023-04-05T14:04:19;3.30;;;2.80;;
10432;SDS011;5263;48.680;9.004;2023-04-05T14:06:44;2.77;;;2.57;;
10432;SDS011;5263;48.680;9.004;2023-04-05T14:09:10;4.50;;;3.00;;
10432;SDS011;5263;48.680;9.004;2023-04-05T14:11:36;7.17;;;3.00;;
10432;SDS011;5263;48.680;9.004;2023-04-05T14:14:11;2.93;;;2.73;;
10432;SDS011;5263;48.680;9.004;2023-04-05T14:16:37;5.23;;;2.60;;
10432;SDS011;5263;48.680;9.004;2023-04-05T14:19:03;4.53;;;3.50;;
10432;SDS011;5263;48.680;9.004;2023-04-05T14:21:29;5.20;;;3.50;;
10432;SDS011;5263;48.680;9.004;2023-04-05T14:23:55;3.63;;;3.03;;
10432;SDS011;5263;48.680;9.004;2023-04-05T14:26:26;4.47;;;3.13;;
10432;SDS011;5263;48.680;9.004;2023-04-05T14:28:52;5.93;;;2.73;;
10432;SDS011;5263;48.680;9.004;2023-04-05T14:31:18;5.37;;;3.10;;
10432;SDS011;5263;48.680;9.004;2023-04-05T14:33:44;2.90;;;2.03;;
10432;SDS011;5263;48.680;9.004;2023-04-05T14:36:10;4.00;;;3.70;;
10432;SDS011;5263;48.680;9.004;2023-04-05T14:38:35;3.67;;;3.27;;
10432;SDS011;5263;48.680;9.004;2023-04-05T14:41:01;3.60;;;3.30;;
10432;SDS011;5263;48.680;9.004;2023-04-05T14:43:29;3.47;;;2.47;;
10432;SDS011;5263;48.680;9.004;2023-04-05T14:45:55;6.10;;;3.70;;
10432;SDS011;5263;48.680;9.004;2023-04-05T14:48:21;7.37;;;3.37;;
10432;SDS011;5263;48.680;9.004;2023-04-05T14:50:46;6.07;;;3.50;;
10432;SDS011;5263;48.680;9.004;2023-04-05T14:53:12;4.73;;;2.83;;
10432;SDS011;5263;48.680;9.004;2023-04-05T14:55:38;4.63;;;4.23;;
10432;SDS011;5263;48.680;9.004;2023-04-05T14:58:03;3.63;;;3.20;;
10432;SDS011;5263;48.680;9.004;2023-04-05T15:00:29;5.40;;;3.57;;
10432;SDS011;5263;48.680;9.004;2023-04-05T15:02:55;3.90;;;3.60;;
10432;SDS011;5263;48.680;9.004;2023-04-05T15:05:20;3.87;;;3.17;;
10432;SDS011;5263;48.680;9.004;2023-04-05T15:07:46;3.00;;;2.80;;
10432;SDS011;5263;48.680;9.004;2023-04-05T15:10:12;5.03;;;3.53;;
10432;SDS011;5263;48.680;9.004;2023-04-05T15:12:37;8.03;;;3.43;;
10432;SDS011;5263;48.680;9.004;2023-04-05T15:15:03;4.20;;;3.07;;
10432;SDS011;5263;48.680;9.004;2023-04-05T15:17:29;5.10;;;3.27;;
10432;SDS011;5263;48.680;9.004;2023-04-05T15:19:55;3.40;;;3.07;;
10432;SDS011;5263;48.680;9.004;2023-04-05T15:22:21;3.40;;;2.97;;
10432;SDS011;5263;48.680;9.004;2023-04-05T15:24:47;5.53;;;3.33;;
10432;SDS011;5263;48.680;9.004;2023-04-05T15:27:13;3.37;;;3.07;;
10432;SDS011;5263;48.680;9.004;2023-04-05T15:29:38;3.30;;;3.03;;
10432;SDS011;5263;48.680;9.004;2023-04-05T15:32:04;3.33;;;3.00;;